Time;durP1;ratioP1;P1;durP2;ratioP2;P2;SDS_P1;SDS_P2;PMS_P1;PMS_P2;Temp;Humidity;BMP_temperature;BMP_pressure;BME280_temperature;BME280_humidity;BME280_pressure;Samples;Min_cycle;Max_cycle;Signal;HPM_P1;HPM_P2
2021/01/16 00:00:27;;;;;;;18.88;12.05;;;1.10;99.90;;;;;;4990167;28;20455;-75
2021/01/16 00:02:53;;;;;;;18.30;13.00;;;1.10;99.90;;;;;;4998835;28;20029;-75
2021/01/16 00:05:21;;;;;;;21.55;12.70;;;1.10;99.90;;;;;;5009461;28;20032;-75
2021/01/16 00:07:58;;;;;;;22.90;13.57;;;1.10;99.90;;;;;;4998587;28;20027;-75
2021/01/16 00:10:23;;;;;;;19.35;12.40;;;1.10;99.90;;;;;;4989785;28;20047;-75
2021/01/16 00:12:49;;;;;;;19.38;11.52;;;1.10;99.90;;;;;;4987610;28;20034;-75
2021/01/16 00:15:16;;;;;;;16.70;10.25;;;1.10;99.90;;;;;;4989768;28;20456;-75
2021/01/16 00:17:42;;;;;;;15.00;10.00;;;1.00;99.90;;;;;;4987789;28;20400;-75
2021/01/16 00:20:12;;;;;;;15.85;10.15;;;1.00;99.90;;;;;;4989717;28;20495;-75
2021/01/16 00:22:48;;;;;;;17.20;10.60;;;0.90;99.90;;;;;;4988121;28;20015;-75
2021/01/16 00:25:14;;;;;;;14.30;9.27;;;0.90;99.90;;;;;;4989854;28;20038;-75
2021/01/16 00:27:40;;;;;;;20.20;11.07;;;1.00;99.90;;;;;;4988396;28;20032;-73
2021/01/16 00:30:07;;;;;;;15.32;9.95;;;1.00;99.90;;;;;;4989940;28;20034;-75
2021/01/16 00:32:35;;;;;;;14.30;9.57;;;0.90;99.90;;;;;;4988654;28;20029;-75
2021/01/16 00:35:05;;;;;;;17.38;9.75;;;0.90;99.90;;;;;;4989743;28;20475;-75
2021/01/16 00:37:31;;;;;;;14.60;9.52;;;0.90;99.90;;;;;;4988580;28;20259;-75
2021/01/16 00:39:57;;;;;;;17.70;10.10;;;0.90;99.90;;;;;;4988733;28;20175;-75
2021/01/16 00:42:22;;;;;;;16.25;8.48;;;0.90;99.90;;;;;;4988315;28;20089;-73
2021/01/16 00:44:48;;;;;;;15.63;9.85;;;0.90;99.90;;;;;;4988905;28;20038;-75
2021/01/16 00:47:13;;;;;;;16.27;10.65;;;0.80;99.90;;;;;;4989262;28;20027;-75
2021/01/16 00:49:39;;;;;;;14.45;8.77;;;0.80;99.90;;;;;;4988144;28;20030;-75
2021/01/16 00:52:04;;;;;;;15.77;10.00;;;0.80;99.90;;;;;;4989524;28;20045;-75
2021/01/16 00:54:30;;;;;;;17.08;8.75;;;0.80;99.90;;;;;;4986984;28;20061;-75
2021/01/16 00:56:56;;;;;;;18.65;11.98;;;0.80;99.90;;;;;;4988336;28;20081;-75
2021/01/16 00:59:21;;;;;;;19.23;10.30;;;0.80;99.90;;;;;;4986640;28;20053;-75
2021/01/16 01:01:47;;;;;;;17.05;10.48;;;0.80;99.90;;;;;;4989270;28;20069;-75
2021/01/16 01:04:12;;;;;;;17.27;10.57;;;0.80;99.90;;;;;;4987314;28;20533;-75
2021/01/16 01:06:38;;;;;;;16.35;9.40;;;0.80;99.90;;;;;;4986933;28;20370;-75
2021/01/16 01:09:04;;;;;;;16.35;9.95;;;0.80;99.90;;;;;;4987750;28;20476;-75
2021/01/16 01:11:29;;;;;;;15.20;9.35;;;0.80;99.90;;;;;;4989990;28;20053;-75
2021/01/16 01:13:55;;;;;;;16.73;9.55;;;0.80;99.90;;;;;;5008254;28;20372;-75
2021/01/16 01:16:21;;;;;;;15.95;10.25;;;0.80;99.90;;;;;;5006126;28;20388;-75
2021/01/16 01:18:46;;;;;;;18.67;11.18;;;0.80;99.90;;;;;;4989206;28;20042;-75
2021/01/16 01:21:13;;;;;;;19.05;10.82;;;0.90;99.90;;;;;;4988438;28;20126;-75
2021/01/16 01:23:38;;;;;;;20.08;11.55;;;0.90;99.90;;;;;;4988486;28;20104;-75
2021/01/16 01:26:04;;;;;;;16.42;9.60;;;0.90;99.90;;;;;;4988051;28;20289;-76
2021/01/16 01:28:30;;;;;;;13.43;8.30;;;0.80;99.90;;;;;;4987356;28;20042;-76
2021/01/16 01:30:55;;;;;;;14.88;10.18;;;0.70;99.90;;;;;;4988482;28;20114;-76
2021/01/16 01:33:21;;;;;;;16.85;10.13;;;0.70;99.90;;;;;;4987415;28;20448;-75
2021/01/16 01:35:47;;;;;;;14.27;9.32;;;0.70;99.90;;;;;;4988307;28;20049;-76
2021/01/16 01:38:17;;;;;;;15.23;10.60;;;0.70;99.90;;;;;;4986374;28;20027;-73
2021/01/16 01:40:43;;;;;;;20.50;12.43;;;0.80;99.90;;;;;;4988706;28;20728;-75
2021/01/16 01:43:09;;;;;;;16.30;9.90;;;0.70;99.90;;;;;;4994612;28;20030;-75
2021/01/16 01:45:34;;;;;;;15.05;8.85;;;0.70;99.90;;;;;;5007508;28;20042;-75
2021/01/16 01:48:01;;;;;;;15.65;10.02;;;0.70;99.90;;;;;;5000280;28;20026;-75
2021/01/16 01:50:28;;;;;;;15.13;9.40;;;0.70;99.90;;;;;;4987972;28;20125;-75
2021/01/16 01:52:56;;;;;;;16.17;10.02;;;0.70;99.90;;;;;;4986765;28;20026;-75
2021/01/16 01:55:23;;;;;;;15.85;9.65;;;0.60;99.90;;;;;;4987442;28;20096;-73
2021/01/16 01:57:56;;;;;;;14.77;8.98;;;0.70;99.90;;;;;;4986596;28;20046;-75
2021/01/16 02:00:23;;;;;;;17.83;10.70;;;0.60;99.90;;;;;;4987708;28;20164;-75
2021/01/16 02:02:50;;;;;;;17.10;9.98;;;0.60;99.90;;;;;;4987122;28;20030;-75
2021/01/16 02:05:16;;;;;;;17.13;10.27;;;0.60;99.90;;;;;;4987234;28;20038;-75
2021/01/16 02:07:42;;;;;;;15.88;10.85;;;0.60;99.90;;;;;;4987041;28;20030;-75
2021/01/16 02:10:22;;;;;;;18.52;10.30;;;0.60;99.90;;;;;;4985589;28;20038;-75
2021/01/16 02:12:54;;;;;;;19.10;10.95;;;0.70;99.90;;;;;;4987207;28;20480;-75
2021/01/16 02:15:41;;;;;;;15.97;11.17;;;0.60;99.90;;;;;;5003234;28;20120;-75
2021/01/16 02:18:31;;;;;;;19.85;12.00;;;0.60;99.90;;;;;;5006899;28;20276;-75
2021/01/16 02:21:00;;;;;;;23.45;13.88;;;0.70;99.90;;;;;;4968530;28;20427;-73
2021/01/16 02:23:28;;;;;;;21.00;11.80;;;0.70;99.90;;;;;;4967322;28;20468;-75
2021/01/16 02:26:15;;;;;;;19.02;11.98;;;0.70;99.90;;;;;;4984814;28;20073;-75
2021/01/16 02:28:52;;;;;;;16.70;9.95;;;0.70;99.90;;;;;;4986852;28;20276;-75
2021/01/16 02:31:18;;;;;;;18.17;10.63;;;0.70;99.90;;;;;;4987120;28;20045;-75
2021/01/16 02:33:45;;;;;;;17.92;11.40;;;0.70;99.90;;;;;;4986648;28;20030;-75
2021/01/16 02:36:19;;;;;;;19.13;9.98;;;0.70;99.90;;;;;;5003353;28;20391;-75
2021/01/16 02:39:23;;;;;;;18.88;11.48;;;0.70;99.90;;;;;;5006489;28;20029;-75
2021/01/16 02:41:59;;;;;;;17.30;10.68;;;0.70;99.90;;;;;;4944443;28;20047;-75
2021/01/16 02:44:58;;;;;;;17.63;10.10;;;0.60;99.90;;;;;;4966541;28;20035;-75
2021/01/16 02:47:44;;;;;;;14.98;9.23;;;0.60;99.90;;;;;;4966220;28;20030;-75
2021/01/16 02:50:10;;;;;;;14.73;9.02;;;0.60;99.90;;;;;;4975884;28;20623;-75
2021/01/16 02:52:44;;;;;;;15.18;9.25;;;0.60;99.90;;;;;;5005931;28;20037;-75
2021/01/16 02:55:10;;;;;;;17.20;9.50;;;0.60;99.90;;;;;;5004145;28;20096;-75
2021/01/16 02:57:36;;;;;;;16.70;9.80;;;0.50;99.90;;;;;;5006508;28;20041;-75
2021/01/16 03:00:07;;;;;;;16.33;9.60;;;0.50;99.90;;;;;;5005029;28;20073;-75
2021/01/16 03:02:33;;;;;;;14.75;8.35;;;0.40;99.90;;;;;;4987300;28;20033;-75
2021/01/16 03:04:59;;;;;;;15.80;9.38;;;0.40;99.90;;;;;;4986353;28;20424;-75
2021/01/16 03:07:27;;;;;;;19.65;10.43;;;0.40;99.90;;;;;;4985979;28;20030;-75
2021/01/16 03:09:56;;;;;;;16.70;9.40;;;0.50;99.90;;;;;;4986400;28;20460;-75
2021/01/16 03:12:22;;;;;;;17.50;10.15;;;0.40;99.90;;;;;;4985039;28;20763;-75
2021/01/16 03:14:54;;;;;;;15.45;9.55;;;0.30;99.90;;;;;;4986543;28;20228;-75
2021/01/16 03:17:24;;;;;;;20.02;10.38;;;0.30;99.90;;;;;;4985044;28;20035;-75
2021/01/16 03:19:50;;;;;;;19.70;9.88;;;0.30;99.90;;;;;;4986595;28;20035;-75
2021/01/16 03:22:26;;;;;;;17.75;9.85;;;0.30;99.90;;;;;;4984967;28;20030;-73
2021/01/16 03:24:56;;;;;;;19.58;11.35;;;0.40;99.90;;;;;;4986210;28;20097;-75
2021/01/16 03:27:23;;;;;;;21.50;9.77;;;0.40;99.90;;;;;;4973350;28;20437;-75
2021/01/16 03:29:50;;;;;;;15.55;9.95;;;0.30;99.90;;;;;;4967275;28;20077;-75
2021/01/16 03:32:16;;;;;;;16.20;10.80;;;0.30;99.90;;;;;;4974159;28;20034;-75
2021/01/16 03:34:47;;;;;;;19.50;10.50;;;0.40;99.90;;;;;;4985824;28;20104;-75
2021/01/16 03:37:14;;;;;;;18.42;11.30;;;0.30;99.90;;;;;;4985440;28;20058;-75
2021/01/16 03:39:40;;;;;;;17.52;11.00;;;0.30;99.90;;;;;;4986449;28;20074;-73
2021/01/16 03:42:07;;;;;;;17.55;9.95;;;0.30;99.90;;;;;;4984575;28;20041;-75
2021/01/16 03:44:33;;;;;;;18.38;11.15;;;0.20;99.90;;;;;;4986326;28;20030;-75
2021/01/16 03:46:59;;;;;;;17.55;10.88;;;0.30;99.90;;;;;;4984760;28;20049;-75
2021/01/16 03:49:25;;;;;;;19.67;11.68;;;0.20;99.90;;;;;;4986409;28;20605;-75
2021/01/16 03:51:50;;;;;;;17.55;10.55;;;0.20;99.90;;;;;;4985638;28;20043;-75
2021/01/16 03:54:16;;;;;;;19.73;11.10;;;0.20;99.90;;;;;;4984592;28;20117;-75
2021/01/16 03:56:42;;;;;;;16.80;11.75;;;0.20;99.90;;;;;;4986368;28;20047;-75
2021/01/16 03:59:07;;;;;;;19.50;12.90;;;0.20;99.90;;;;;;4989096;28;20073;-75
2021/01/16 04:01:34;;;;;;;20.35;13.00;;;0.30;99.90;;;;;;4991253;28;20432;-73
2021/01/16 04:04:01;;;;;;;17.73;10.43;;;0.30;99.90;;;;;;4986385;28;20114;-73
2021/01/16 04:06:27;;;;;;;17.80;11.73;;;0.30;99.90;;;;;;4985651;28;20030;-72
2021/01/16 04:08:53;;;;;;;19.95;12.07;;;0.30;99.90;;;;;;4986236;28;20035;-73
2021/01/16 04:11:18;;;;;;;17.63;11.02;;;0.30;99.90;;;;;;4985544;28;20034;-72
2021/01/16 04:13:44;;;;;;;22.02;12.40;;;0.20;99.90;;;;;;4984801;28;20541;-73
2021/01/16 04:16:10;;;;;;;19.70;11.85;;;0.10;99.90;;;;;;4985976;28;20472;-73
2021/01/16 04:18:36;;;;;;;21.30;12.93;;;0.20;99.90;;;;;;4984404;28;20045;-72
2021/01/16 04:21:03;;;;;;;19.00;12.13;;;0.10;99.90;;;;;;4986074;28;20849;-73
2021/01/16 04:23:29;;;;;;;19.23;11.65;;;0.10;99.90;;;;;;4984247;28;20265;-73
2021/01/16 04:25:54;;;;;;;20.85;12.32;;;0.10;99.90;;;;;;4985673;28;20388;-73
2021/01/16 04:28:20;;;;;;;20.10;11.07;;;0.10;99.90;;;;;;4984125;28;20033;-72
2021/01/16 04:30:46;;;;;;;18.58;10.95;;;0.00;99.90;;;;;;4985969;28;20408;-70
2021/01/16 04:33:13;;;;;;;21.42;11.60;;;0.00;99.90;;;;;;4988363;28;20840;-72
2021/01/16 04:35:38;;;;;;;23.92;13.25;;;0.00;99.90;;;;;;5009066;28;20037;-72
2021/01/16 04:38:04;;;;;;;20.05;11.38;;;0.10;99.90;;;;;;5008369;28;20045;-72
2021/01/16 04:40:30;;;;;;;20.17;12.13;;;0.00;99.90;;;;;;4989196;28;20527;-73
2021/01/16 04:42:58;;;;;;;18.45;12.23;;;0.10;99.90;;;;;;4988892;28;20053;-72
2021/01/16 04:45:24;;;;;;;20.17;12.35;;;0.10;99.90;;;;;;4987757;28;20037;-72
2021/01/16 04:47:50;;;;;;;20.83;13.07;;;0.10;99.90;;;;;;4989444;28;20376;-72
2021/01/16 04:50:17;;;;;;;22.23;12.57;;;0.10;99.90;;;;;;4987561;28;20026;-73
2021/01/16 04:52:45;;;;;;;18.50;11.95;;;0.00;99.90;;;;;;4989351;28;20109;-72
2021/01/16 04:55:13;;;;;;;18.40;12.15;;;0.10;99.90;;;;;;4987136;28;20054;-72
2021/01/16 04:57:39;;;;;;;23.15;13.77;;;-0.10;99.90;;;;;;4988563;28;20030;-70
2021/01/16 05:00:06;;;;;;;21.30;13.02;;;-0.10;99.90;;;;;;4987181;28;20118;-72
2021/01/16 05:02:37;;;;;;;18.95;12.07;;;-0.10;99.90;;;;;;4989197;28;20034;-72
2021/01/16 05:05:03;;;;;;;23.80;13.43;;;-0.10;99.90;;;;;;4986746;28;20036;-72
2021/01/16 05:07:32;;;;;;;18.52;12.55;;;-0.10;99.90;;;;;;4991268;28;20423;-73
2021/01/16 05:09:59;;;;;;;21.92;13.77;;;-0.10;99.90;;;;;;4986464;28;20381;-70
2021/01/16 05:12:59;;;;;;;20.08;13.10;;;-0.10;99.90;;;;;;4987052;28;20460;-72
2021/01/16 05:15:30;;;;;;;21.02;12.77;;;-0.10;99.90;;;;;;4978595;28;20051;-75
2021/01/16 05:18:08;;;;;;;20.10;14.47;;;-0.20;99.90;;;;;;4988189;28;20396;-75
2021/01/16 05:20:37;;;;;;;23.63;14.25;;;-0.30;99.90;;;;;;5006950;28;20030;-73
2021/01/16 05:23:16;;;;;;;22.40;13.73;;;-0.20;99.90;;;;;;5007636;28;20029;-75
2021/01/16 05:25:50;;;;;;;22.10;14.50;;;-0.20;99.90;;;;;;4989172;28;20030;-75
2021/01/16 05:28:18;;;;;;;19.65;12.32;;;-0.20;99.90;;;;;;4987606;28;20030;-75
2021/01/16 05:31:06;;;;;;;23.48;13.50;;;-0.20;99.90;;;;;;4987340;28;20344;-75
2021/01/16 05:33:34;;;;;;;21.83;13.52;;;-0.20;99.90;;;;;;4988460;28;20034;-75
2021/01/16 05:36:02;;;;;;;21.70;13.95;;;-0.20;99.90;;;;;;4987835;28;20054;-75
2021/01/16 05:38:32;;;;;;;21.15;13.32;;;-0.20;99.90;;;;;;4982261;28;20150;-75
2021/01/16 05:40:58;;;;;;;21.17;13.40;;;-0.20;99.90;;;;;;4985038;28;20121;-75
2021/01/16 05:43:26;;;;;;;21.33;13.32;;;-0.20;99.90;;;;;;4984082;28;20109;-74
2021/01/16 05:45:58;;;;;;;23.50;13.80;;;-0.20;99.90;;;;;;4984195;28;20264;-75
2021/01/16 05:48:28;;;;;;;23.58;13.82;;;-0.20;99.90;;;;;;4982006;28;20461;-74
2021/01/16 05:51:02;;;;;;;26.20;14.75;;;-0.20;99.90;;;;;;4994652;28;20041;-75
2021/01/16 05:53:28;;;;;;;20.70;13.40;;;-0.20;99.90;;;;;;4981659;28;20496;-75
2021/01/16 05:55:56;;;;;;;24.10;14.60;;;-0.30;99.90;;;;;;4983951;28;20487;-75
2021/01/16 05:58:43;;;;;;;24.17;14.93;;;-0.20;99.90;;;;;;4984356;28;20478;-75
2021/01/16 06:01:20;;;;;;;22.55;13.75;;;-0.20;99.90;;;;;;4985603;28;20046;-75
2021/01/16 06:03:55;;;;;;;22.92;14.20;;;-0.20;99.90;;;;;;4986579;28;20045;-75
2021/01/16 06:06:21;;;;;;;25.85;15.07;;;-0.20;99.90;;;;;;4984640;28;20135;-75
2021/01/16 06:08:50;;;;;;;23.75;16.20;;;-0.10;99.90;;;;;;4986011;28;20752;-75
2021/01/16 06:11:16;;;;;;;23.30;14.60;;;-0.10;99.90;;;;;;4975688;28;20195;-73
2021/01/16 06:13:43;;;;;;;25.30;15.90;;;-0.10;99.90;;;;;;4978750;28;20465;-75
2021/01/16 06:16:15;;;;;;;23.80;14.23;;;-0.10;99.90;;;;;;4978520;28;20078;-75
2021/01/16 06:19:03;;;;;;;24.35;15.18;;;-0.10;99.90;;;;;;4979205;28;20481;-75
2021/01/16 06:21:30;;;;;;;21.95;13.65;;;-0.10;99.90;;;;;;4973188;28;20113;-75
2021/01/16 06:24:00;;;;;;;23.20;14.63;;;-0.20;99.90;;;;;;4984964;28;20102;-72
2021/01/16 06:26:27;;;;;;;22.67;14.57;;;-0.20;99.90;;;;;;4972167;28;20061;-75
2021/01/16 06:29:01;;;;;;;20.80;13.05;;;-0.20;99.90;;;;;;4987000;28;20037;-75
2021/01/16 06:31:29;;;;;;;23.30;14.50;;;-0.20;99.90;;;;;;4981480;28;20038;-75
2021/01/16 06:33:58;;;;;;;24.77;15.63;;;-0.30;99.90;;;;;;4980352;28;20098;-75
2021/01/16 06:36:36;;;;;;;19.55;14.13;;;-0.30;99.90;;;;;;4981927;28;20763;-76
2021/01/16 06:39:10;;;;;;;23.35;13.77;;;-0.40;99.90;;;;;;4985718;28;20064;-75
2021/01/16 06:41:44;;;;;;;24.80;14.85;;;-0.30;99.90;;;;;;4979122;28;20054;-75
2021/01/16 06:44:14;;;;;;;22.50;13.32;;;-0.30;99.90;;;;;;4970719;28;20155;-75
2021/01/16 06:46:45;;;;;;;21.63;13.50;;;-0.30;99.90;;;;;;4974717;28;20035;-75
2021/01/16 06:49:28;;;;;;;25.58;15.77;;;-0.40;99.90;;;;;;4978613;28;20076;-75
2021/01/16 06:52:30;;;;;;;23.80;16.00;;;-0.30;99.90;;;;;;4980923;28;20490;-75
2021/01/16 06:54:56;;;;;;;21.65;13.98;;;-0.30;99.90;;;;;;4980583;28;20056;-75
2021/01/16 06:57:22;;;;;;;21.83;13.30;;;-0.40;99.90;;;;;;4982711;28;20587;-75
2021/01/16 06:59:49;;;;;;;25.77;15.98;;;-0.30;99.90;;;;;;4980928;28;20041;-75
2021/01/16 07:02:34;;;;;;;23.02;15.38;;;-0.30;99.90;;;;;;4980636;28;20037;-75
2021/01/16 07:05:21;;;;;;;23.73;14.93;;;-0.30;99.90;;;;;;4979498;28;20032;-75
2021/01/16 07:07:48;;;;;;;24.20;14.73;;;-0.30;99.90;;;;;;4980311;28;20038;-75
2021/01/16 07:10:19;;;;;;;22.27;13.73;;;-0.30;99.90;;;;;;4983690;28;20038;-75
2021/01/16 07:12:47;;;;;;;23.13;15.55;;;-0.30;99.90;;;;;;4975591;28;20036;-75
2021/01/16 07:15:13;;;;;;;23.42;15.00;;;-0.30;99.90;;;;;;4978356;28;20124;-74
2021/01/16 07:17:39;;;;;;;20.42;14.40;;;-0.30;99.90;;;;;;4982670;28;20037;-75
2021/01/16 07:20:06;;;;;;;24.17;15.27;;;-0.20;99.90;;;;;;4985295;28;20042;-75
2021/01/16 07:22:37;;;;;;;24.30;15.57;;;-0.30;99.90;;;;;;4978135;28;20038;-75
2021/01/16 07:25:06;;;;;;;24.48;14.48;;;-0.30;99.90;;;;;;4984379;28;20040;-73
2021/01/16 07:27:34;;;;;;;27.40;15.15;;;-0.30;99.90;;;;;;4981806;28;20523;-75
2021/01/16 07:30:00;;;;;;;23.65;15.98;;;-0.30;99.90;;;;;;4976324;28;20232;-75
2021/01/16 07:32:42;;;;;;;25.05;16.65;;;-0.20;99.90;;;;;;4977870;28;20038;-75
2021/01/16 07:35:19;;;;;;;24.85;16.30;;;-0.20;99.90;;;;;;4983704;28;20069;-75
2021/01/16 07:37:47;;;;;;;26.42;17.08;;;-0.20;99.90;;;;;;4981450;28;20194;-75
2021/01/16 07:40:30;;;;;;;29.88;17.42;;;-0.20;99.90;;;;;;4981978;28;20039;-75
2021/01/16 07:43:00;;;;;;;52.35;27.63;;;-0.10;99.90;;;;;;4985853;28;20026;-75
2021/01/16 07:45:41;;;;;;;30.20;18.45;;;-0.10;99.90;;;;;;4978104;28;20034;-75
2021/01/16 07:48:07;;;;;;;26.30;16.40;;;-0.10;99.90;;;;;;4985843;28;20054;-75
2021/01/16 07:50:37;;;;;;;25.90;14.98;;;-0.20;99.90;;;;;;4980612;28;20038;-75
2021/01/16 07:53:10;;;;;;;28.08;16.88;;;-0.20;99.90;;;;;;4978850;28;20027;-75
2021/01/16 07:55:36;;;;;;;27.83;17.58;;;-0.30;99.90;;;;;;4978257;28;20046;-75
2021/01/16 07:58:13;;;;;;;26.75;16.75;;;-0.20;99.90;;;;;;4980941;28;20431;-74
2021/01/16 08:00:44;;;;;;;29.15;17.33;;;-0.20;99.90;;;;;;4982002;28;20042;-74
2021/01/16 08:03:21;;;;;;;27.75;16.85;;;-0.20;99.90;;;;;;4982165;28;20050;-73
2021/01/16 08:06:10;;;;;;;25.48;15.65;;;-0.10;99.90;;;;;;4982641;28;20027;-75
2021/01/16 08:08:53;;;;;;;26.63;16.00;;;-0.10;99.90;;;;;;4977220;28;20085;-75
2021/01/16 08:11:26;;;;;;;30.30;18.13;;;-0.10;99.90;;;;;;4983507;28;20066;-75
2021/01/16 08:14:03;;;;;;;27.27;17.25;;;-0.10;99.90;;;;;;4981373;28;20030;-75
2021/01/16 08:16:29;;;;;;;28.02;17.60;;;-0.20;99.90;;;;;;4976138;28;20109;-75
2021/01/16 08:19:10;;;;;;;26.63;17.88;;;-0.10;99.90;;;;;;4979192;28;20126;-75
2021/01/16 08:21:36;;;;;;;30.52;17.60;;;-0.10;99.90;;;;;;4988532;28;20105;-74
2021/01/16 08:24:06;;;;;;;29.35;19.00;;;-0.10;99.90;;;;;;4988591;28;20031;-75
2021/01/16 08:26:32;;;;;;;29.48;17.83;;;0.00;99.90;;;;;;4980890;28;20489;-74
2021/01/16 08:29:00;;;;;;;25.40;17.02;;;-0.10;99.90;;;;;;4982245;28;20093;-74
2021/01/16 08:31:30;;;;;;;25.90;16.63;;;-0.10;99.90;;;;;;4979521;28;20038;-75
2021/01/16 08:33:57;;;;;;;26.20;14.77;;;-0.10;99.90;;;;;;4982524;28;20031;-74
2021/01/16 08:36:23;;;;;;;24.02;15.88;;;0.00;99.90;;;;;;4984835;28;20336;-73
2021/01/16 08:38:50;;;;;;;24.17;16.02;;;-0.10;99.90;;;;;;4984994;28;20049;-73
2021/01/16 08:41:25;;;;;;;25.65;16.55;;;0.00;99.90;;;;;;4976856;28;20037;-74
2021/01/16 08:43:54;;;;;;;27.10;15.18;;;0.00;99.90;;;;;;4983046;28;20030;-74
2021/01/16 08:46:30;;;;;;;24.85;16.35;;;0.00;99.90;;;;;;4982730;28;20034;-74
2021/01/16 08:49:08;;;;;;;22.90;15.52;;;0.10;99.90;;;;;;4983846;28;20038;-74
2021/01/16 08:51:42;;;;;;;25.20;17.08;;;0.10;99.90;;;;;;4976569;28;20031;-74
2021/01/16 08:54:18;;;;;;;26.85;17.10;;;0.10;99.90;;;;;;4992135;28;20051;-74
2021/01/16 08:56:49;;;;;;;23.48;15.23;;;0.10;99.90;;;;;;4979474;28;20053;-74
2021/01/16 08:59:22;;;;;;;26.98;15.68;;;0.20;99.90;;;;;;4983748;28;20061;-74
2021/01/16 09:01:50;;;;;;;26.15;15.38;;;0.10;99.90;;;;;;4975527;28;20035;-74
2021/01/16 09:04:20;;;;;;;26.63;18.02;;;0.10;99.90;;;;;;4984827;28;20153;-74
2021/01/16 09:06:46;;;;;;;29.55;17.77;;;0.10;99.90;;;;;;4978680;28;20353;-74
2021/01/16 09:09:14;;;;;;;25.98;15.85;;;0.20;99.90;;;;;;4983888;28;20077;-74
2021/01/16 09:11:40;;;;;;;26.40;16.65;;;0.20;99.90;;;;;;4983271;28;20100;-74
2021/01/16 09:14:06;;;;;;;26.35;16.80;;;0.30;99.90;;;;;;4983172;28;20030;-74
2021/01/16 09:16:37;;;;;;;25.48;16.52;;;0.20;99.90;;;;;;4973340;28;20042;-75
2021/01/16 09:19:03;;;;;;;28.17;17.17;;;0.30;99.90;;;;;;4986122;28;20149;-74
2021/01/16 09:21:29;;;;;;;22.33;14.95;;;0.30;99.90;;;;;;4979188;28;20026;-74
2021/01/16 09:23:55;;;;;;;27.27;17.60;;;0.40;99.90;;;;;;4984865;28;20138;-71
2021/01/16 09:26:22;;;;;;;26.85;17.83;;;0.40;99.90;;;;;;4983708;28;20027;-70
2021/01/16 09:28:55;;;;;;;28.98;18.10;;;0.40;99.90;;;;;;4979563;28;20452;-71
2021/01/16 09:31:40;;;;;;;26.40;16.90;;;0.40;99.90;;;;;;4982892;28;20376;-70
2021/01/16 09:34:20;;;;;;;34.72;17.88;;;0.40;99.90;;;;;;4983773;28;20023;-73
2021/01/16 09:36:49;;;;;;;28.60;18.27;;;0.50;99.90;;;;;;4980256;28;20089;-73
2021/01/16 09:39:34;;;;;;;28.02;17.45;;;0.40;99.90;;;;;;4974766;28;20119;-73
2021/01/16 09:42:19;;;;;;;30.08;17.88;;;0.50;99.90;;;;;;4984944;28;20042;-73
2021/01/16 09:44:54;;;;;;;25.73;16.33;;;0.30;99.90;;;;;;4974662;28;20030;-73
2021/01/16 09:47:26;;;;;;;25.35;16.63;;;0.40;99.90;;;;;;4987237;28;20113;-73
2021/01/16 09:50:13;;;;;;;31.17;17.88;;;0.50;99.90;;;;;;4989342;28;20038;-73
2021/01/16 09:52:50;;;;;;;25.35;16.92;;;0.40;99.90;;;;;;4984098;28;20045;-73
2021/01/16 09:55:17;;;;;;;27.80;17.23;;;0.50;99.90;;;;;;4987910;28;20052;-73
2021/01/16 09:57:43;;;;;;;27.58;18.10;;;0.60;99.90;;;;;;4987584;28;20301;-73
2021/01/16 10:00:27;;;;;;;26.70;16.98;;;0.70;99.90;;;;;;4978787;28;20954;-73
2021/01/16 10:03:00;;;;;;;30.27;21.00;;;0.70;99.90;;;;;;4979494;28;20145;-73
2021/01/16 10:05:34;;;;;;;26.02;17.33;;;0.80;99.90;;;;;;4970905;28;20034;-73
2021/01/16 10:08:00;;;;;;;35.70;17.67;;;0.80;99.90;;;;;;4981077;28;20077;-73
2021/01/16 10:10:27;;;;;;;26.58;16.65;;;0.80;99.90;;;;;;4980064;28;20041;-73
2021/01/16 10:13:00;;;;;;;25.50;18.00;;;0.80;99.90;;;;;;4986111;28;20037;-73
2021/01/16 10:15:29;;;;;;;30.13;18.85;;;0.90;99.90;;;;;;4977936;28;20038;-73
2021/01/16 10:17:56;;;;;;;31.75;20.73;;;0.90;99.90;;;;;;4981211;28;20113;-73
2021/01/16 10:20:34;;;;;;;29.15;20.42;;;0.90;99.90;;;;;;4984226;28;20038;-73
2021/01/16 10:23:05;;;;;;;29.83;19.65;;;1.00;99.90;;;;;;4987845;28;20026;-74
2021/01/16 10:25:41;;;;;;;32.95;19.73;;;1.00;99.90;;;;;;4982131;28;20053;-73
2021/01/16 10:28:11;;;;;;;31.25;18.90;;;1.00;99.90;;;;;;4986192;28;20053;-73
2021/01/16 10:30:59;;;;;;;32.10;22.42;;;1.00;99.90;;;;;;4989387;28;20030;-74
2021/01/16 10:33:26;;;;;;;32.40;17.67;;;0.90;99.90;;;;;;4985867;28;20089;-73
2021/01/16 10:36:09;;;;;;;31.30;18.08;;;0.80;99.90;;;;;;4985569;28;20041;-73
2021/01/16 10:38:40;;;;;;;29.48;18.13;;;0.70;99.90;;;;;;4983640;28;20117;-73
2021/01/16 10:41:08;;;;;;;28.50;18.08;;;0.70;99.90;;;;;;4990101;28;20034;-74
2021/01/16 10:43:35;;;;;;;26.58;17.42;;;0.70;99.90;;;;;;4987831;28;20047;-73
2021/01/16 10:46:30;;;;;;;30.30;17.92;;;0.60;99.90;;;;;;4984830;28;20041;-74
2021/01/16 10:49:15;;;;;;;27.48;18.00;;;0.80;99.90;;;;;;4977311;28;20042;-73
2021/01/16 10:51:46;;;;;;;26.92;17.30;;;0.90;99.90;;;;;;4976821;28;20093;-74
2021/01/16 10:54:15;;;;;;;26.17;17.63;;;1.00;99.90;;;;;;4989156;28;20054;-74
2021/01/16 10:57:05;;;;;;;26.08;16.38;;;0.90;99.90;;;;;;4984566;28;20053;-73
2021/01/16 10:59:32;;;;;;;28.42;18.98;;;0.90;99.90;;;;;;4987415;28;20041;-74
2021/01/16 11:02:08;;;;;;;28.00;16.75;;;0.90;99.90;;;;;;4988876;28;20030;-73
2021/01/16 11:04:39;;;;;;;27.42;18.42;;;0.80;99.90;;;;;;4985855;28;20027;-73
2021/01/16 11:07:09;;;;;;;25.70;16.92;;;0.70;99.90;;;;;;4991606;28;20524;-73
2021/01/16 11:09:34;;;;;;;27.73;19.17;;;0.70;99.90;;;;;;4984258;28;20117;-73
2021/01/16 11:12:05;;;;;;;26.08;17.02;;;0.90;99.90;;;;;;4983604;28;20156;-73
2021/01/16 11:14:37;;;;;;;26.27;16.85;;;1.00;99.90;;;;;;4985135;28;20018;-74
2021/01/16 11:17:03;;;;;;;29.07;20.33;;;1.00;99.90;;;;;;4988008;28;20046;-73
2021/01/16 11:19:36;;;;;;;31.35;19.98;;;1.10;99.90;;;;;;4983409;28;20078;-73
2021/01/16 11:22:05;;;;;;;27.42;17.38;;;1.20;99.90;;;;;;4985799;28;20037;-73
2021/01/16 11:24:53;;;;;;;27.35;18.35;;;1.30;99.90;;;;;;4986581;28;20022;-72
2021/01/16 11:27:23;;;;;;;29.02;17.80;;;1.20;99.90;;;;;;4980491;28;20037;-72
2021/01/16 11:29:51;;;;;;;26.05;16.40;;;1.10;99.90;;;;;;4978718;28;20081;-72
2021/01/16 11:32:18;;;;;;;26.80;17.77;;;1.20;99.90;;;;;;4987474;28;20102;-72
2021/01/16 11:35:02;;;;;;;25.30;16.92;;;1.00;99.90;;;;;;4986512;28;20559;-72
2021/01/16 11:37:51;;;;;;;29.98;18.60;;;1.00;99.90;;;;;;4985284;28;20172;-72
2021/01/16 11:40:27;;;;;;;27.83;18.50;;;1.20;99.90;;;;;;4981720;28;20534;-72
2021/01/16 11:42:55;;;;;;;22.98;13.77;;;1.30;99.90;;;;;;4989441;28;20037;-72
2021/01/16 11:45:24;;;;;;;20.38;13.90;;;1.20;99.90;;;;;;4997996;28;20056;-72
2021/01/16 11:47:54;;;;;;;22.55;15.40;;;1.10;99.90;;;;;;4994796;28;20030;-72
2021/01/16 11:50:22;;;;;;;24.67;15.18;;;1.10;99.90;;;;;;4991504;28;20716;-72
2021/01/16 11:52:48;;;;;;;26.30;15.77;;;1.20;99.90;;;;;;4998090;28;20041;-73
2021/01/16 11:55:15;;;;;;;22.90;14.75;;;1.30;99.90;;;;;;4998105;28;20361;-72
2021/01/16 11:57:43;;;;;;;21.00;13.23;;;1.30;99.90;;;;;;4992035;28;20027;-72
2021/01/16 12:00:10;;;;;;;21.27;13.73;;;1.20;99.90;;;;;;4992742;28;20764;-72
2021/01/16 12:02:36;;;;;;;21.85;14.25;;;1.30;99.90;;;;;;4990674;28;20026;-72
2021/01/16 12:05:03;;;;;;;23.50;14.45;;;1.40;99.90;;;;;;4995206;28;20141;-72
2021/01/16 12:07:30;;;;;;;20.20;13.90;;;1.50;99.90;;;;;;5001608;28;20096;-72
2021/01/16 12:09:57;;;;;;;18.48;11.93;;;1.60;99.90;;;;;;4997536;28;20423;-72
2021/01/16 12:12:31;;;;;;;21.23;13.85;;;1.70;99.90;;;;;;4994692;28;20055;-72
2021/01/16 12:14:56;;;;;;;26.52;15.48;;;1.70;99.90;;;;;;4987211;28;20125;-72
2021/01/16 12:17:27;;;;;;;20.50;13.65;;;1.70;99.90;;;;;;4982807;28;20459;-72
2021/01/16 12:19:53;;;;;;;22.10;13.73;;;1.70;99.90;;;;;;4980975;28;20049;-72
2021/01/16 12:22:22;;;;;;;23.00;13.02;;;1.70;99.90;;;;;;4984270;28;20081;-72
2021/01/16 12:24:48;;;;;;;20.83;14.82;;;1.80;99.90;;;;;;4987987;28;20034;-72
2021/01/16 12:27:15;;;;;;;22.40;13.80;;;1.80;99.90;;;;;;4984965;28;20027;-72
2021/01/16 12:29:42;;;;;;;19.73;13.15;;;1.80;99.90;;;;;;4987428;28;20042;-72
2021/01/16 12:32:10;;;;;;;22.17;14.98;;;1.90;99.90;;;;;;4981717;28;20034;-72
2021/01/16 12:34:53;;;;;;;23.73;16.75;;;2.00;99.90;;;;;;4980334;28;20050;-72
2021/01/16 12:37:35;;;;;;;23.85;15.32;;;2.10;99.90;;;;;;4982042;28;20434;-72
2021/01/16 12:40:04;;;;;;;26.45;16.20;;;2.10;99.90;;;;;;4983307;28;20062;-72
2021/01/16 12:42:32;;;;;;;23.00;15.02;;;2.20;99.90;;;;;;4988603;28;20037;-72
2021/01/16 12:45:06;;;;;;;21.33;12.98;;;2.20;99.90;;;;;;4989558;28;20034;-72
2021/01/16 12:47:32;;;;;;;17.90;13.18;;;1.90;99.90;;;;;;4980400;28;20034;-72
2021/01/16 12:49:59;;;;;;;22.02;15.07;;;1.90;99.90;;;;;;4979600;28;20042;-72
2021/01/16 12:52:27;;;;;;;20.25;13.85;;;2.10;99.90;;;;;;4986488;28;20401;-72